Time;durP1;ratioP1;P1;durP2;ratioP2;P2;SDS_P1;SDS_P2;PMS_P1;PMS_P2;Temp;Humidity;BMP_temperature;BMP_pressure;BME280_temperature;BME280_humidity;BME280_pressure;Samples;Min_cycle;Max_cycle;Signal;HPM_P1;HPM_P2
2023/05/17 00:01:54;;;;;;;0.90;0.90;;;19.90;70.00;;;;;;5079053;28;43386;-69
2023/05/17 00:04:22;;;;;;;0.90;0.90;;;19.90;70.30;;;;;;5080464;28;43396;-69
2023/05/17 00:06:52;;;;;;;0.90;0.90;;;19.80;70.10;;;;;;5083762;28;43447;-69
2023/05/17 00:09:20;;;;;;;1.00;1.00;;;19.80;70.20;;;;;;5080389;28;43762;-69
2023/05/17 00:11:48;;;;;;;1.33;0.90;;;19.80;70.20;;;;;;5087279;28;43433;-69
2023/05/17 00:14:16;;;;;;;0.90;0.90;;;19.80;70.40;;;;;;5082460;28;43406;-69
2023/05/17 00:16:44;;;;;;;1.10;1.10;;;19.70;70.70;;;;;;5082436;27;43413;-69
2023/05/17 00:19:13;;;;;;;1.10;1.10;;;19.70;70.60;;;;;;5080459;28;45861;-69
2023/05/17 00:21:41;;;;;;;0.80;0.80;;;19.70;70.50;;;;;;5081574;28;43437;-69
2023/05/17 00:24:09;;;;;;;0.77;0.77;;;19.70;70.50;;;;;;5076378;28;43389;-69
2023/05/17 00:26:37;;;;;;;1.00;1.00;;;19.70;70.60;;;;;;5086207;27;43410;-69
2023/05/17 00:29:05;;;;;;;0.90;0.90;;;19.70;70.90;;;;;;5083268;28;45410;-69
2023/05/17 00:31:34;;;;;;;1.00;1.00;;;19.80;70.80;;;;;;5077916;28;43419;-69
2023/05/17 00:34:01;;;;;;;1.00;1.00;;;19.80;70.40;;;;;;5077197;28;43423;-69
2023/05/17 00:36:31;;;;;;;0.80;0.80;;;20.00;70.10;;;;;;5079132;28;43391;-69
2023/05/17 00:38:59;;;;;;;0.80;0.80;;;20.00;69.90;;;;;;5077372;28;45734;-69
2023/05/17 00:41:27;;;;;;;1.00;1.00;;;20.00;69.70;;;;;;5072054;28;44768;-69
2023/05/17 00:43:55;;;;;;;0.83;0.83;;;20.00;69.80;;;;;;5075440;28;43394;-69
2023/05/17 00:46:22;;;;;;;0.87;0.87;;;19.90;69.80;;;;;;5073433;28;43346;-69
2023/05/17 00:48:50;;;;;;;0.90;0.90;;;19.80;69.90;;;;;;5085289;27;44713;-69
2023/05/17 00:51:19;;;;;;;0.80;0.80;;;19.80;70.40;;;;;;5079784;28;43454;-69
2023/05/17 00:53:48;;;;;;;1.00;1.00;;;19.80;70.40;;;;;;5086228;28;43386;-69
2023/05/17 00:56:16;;;;;;;0.80;0.80;;;19.80;70.30;;;;;;5090068;27;43824;-71
2023/05/17 00:58:44;;;;;;;0.90;0.90;;;19.80;70.30;;;;;;5089095;28;43746;-69
2023/05/17 01:01:12;;;;;;;0.90;0.90;;;19.70;70.30;;;;;;5073319;28;44648;-74
2023/05/17 01:03:40;;;;;;;0.90;0.90;;;19.70;71.40;;;;;;5063640;27;44080;-74
2023/05/17 01:06:08;;;;;;;0.80;0.80;;;19.70;70.70;;;;;;5076546;28;43753;-73
2023/05/17 01:08:36;;;;;;;0.90;0.90;;;19.70;70.50;;;;;;5082873;28;45232;-74
2023/05/17 01:11:10;;;;;;;0.97;0.97;;;19.70;70.50;;;;;;5079502;27;45859;-73
2023/05/17 01:13:41;;;;;;;1.00;1.00;;;19.70;70.60;;;;;;5079860;28;43408;-74
2023/05/17 01:16:13;;;;;;;1.00;1.00;;;19.60;70.70;;;;;;5079884;28;43462;-74
2023/05/17 01:18:43;;;;;;;0.87;0.87;;;19.70;70.90;;;;;;5068587;28;45271;-72
2023/05/17 01:21:17;;;;;;;0.93;0.93;;;19.80;70.70;;;;;;5077988;28;45187;-74
2023/05/17 01:23:55;;;;;;;0.80;0.80;;;19.90;70.30;;;;;;5077977;28;44062;-73
2023/05/17 01:26:37;;;;;;;1.00;1.00;;;20.00;69.80;;;;;;5078778;27;43461;-73
2023/05/17 01:29:05;;;;;;;0.90;0.90;;;20.10;69.60;;;;;;5062791;28;44031;-74
2023/05/17 01:31:33;;;;;;;0.80;0.80;;;20.10;69.50;;;;;;5083640;28;44884;-74
2023/05/17 01:34:01;;;;;;;0.83;0.83;;;20.00;69.50;;;;;;5083101;28;44010;-73
2023/05/17 01:36:30;;;;;;;0.90;0.90;;;19.90;69.60;;;;;;5082918;27;43630;-74
2023/05/17 01:38:59;;;;;;;0.90;0.90;;;19.90;70.00;;;;;;5067779;28;43614;-74
2023/05/17 01:41:35;;;;;;;0.80;0.80;;;19.80;70.20;;;;;;5083350;27;43411;-73
2023/05/17 01:44:07;;;;;;;0.90;0.90;;;19.80;70.10;;;;;;5080278;28;43335;-73
2023/05/17 01:46:38;;;;;;;0.87;0.87;;;19.80;70.10;;;;;;5082521;28;43493;-75
2023/05/17 01:49:08;;;;;;;0.90;0.90;;;19.80;70.30;;;;;;5078073;28;45735;-72
2023/05/17 01:51:39;;;;;;;0.80;0.80;;;19.70;70.30;;;;;;5075037;28;44739;-73
2023/05/17 01:54:10;;;;;;;1.00;1.00;;;19.70;70.60;;;;;;5085343;28;43455;-74
2023/05/17 01:56:43;;;;;;;1.07;1.07;;;19.70;70.60;;;;;;5078316;28;43498;-75
2023/05/17 01:59:11;;;;;;;0.90;0.90;;;19.70;70.40;;;;;;5078281;27;45305;-75
2023/05/17 02:01:39;;;;;;;1.10;1.10;;;19.70;70.40;;;;;;5081844;28;43412;-74
2023/05/17 02:04:10;;;;;;;0.90;0.90;;;19.60;70.40;;;;;;5085467;28;43434;-74
2023/05/17 02:06:38;;;;;;;1.00;1.00;;;19.60;70.70;;;;;;5083804;27;43519;-74
2023/05/17 02:09:06;;;;;;;0.80;0.80;;;19.70;70.80;;;;;;5079981;27;43671;-71
2023/05/17 02:11:35;;;;;;;0.80;0.80;;;19.80;70.60;;;;;;5074877;28;45033;-74
2023/05/17 02:14:05;;;;;;;0.90;0.90;;;19.90;70.20;;;;;;5080471;28;43967;-73
2023/05/17 02:16:33;;;;;;;0.87;0.87;;;20.00;69.80;;;;;;5085780;28;43472;-74
2023/05/17 02:19:01;;;;;;;0.90;0.90;;;20.00;69.60;;;;;;5082601;28;44962;-74
2023/05/17 02:21:29;;;;;;;1.17;1.17;;;20.00;69.50;;;;;;5085879;27;43870;-73
2023/05/17 02:23:57;;;;;;;1.10;1.10;;;20.00;69.60;;;;;;5078851;28;43466;-74
2023/05/17 02:26:25;;;;;;;0.97;0.97;;;19.90;69.60;;;;;;5077013;28;44018;-73
2023/05/17 02:28:53;;;;;;;1.00;1.00;;;19.80;69.90;;;;;;5085602;28;43747;-73
2023/05/17 02:31:23;;;;;;;0.90;0.90;;;19.80;70.20;;;;;;5079693;28;43350;-74
2023/05/17 02:33:51;;;;;;;1.00;1.00;;;19.80;70.10;;;;;;5078469;28;43956;-74
2023/05/17 02:36:20;;;;;;;1.00;1.00;;;19.70;70.10;;;;;;5080872;28;43417;-74
2023/05/17 02:38:48;;;;;;;1.00;1.00;;;19.70;70.10;;;;;;5081413;28;46289;-74
2023/05/17 02:41:16;;;;;;;0.90;0.90;;;19.70;71.00;;;;;;5080744;27;44362;-74
2023/05/17 02:43:44;;;;;;;0.90;0.90;;;19.70;70.70;;;;;;5079672;27;43427;-73
2023/05/17 02:46:12;;;;;;;0.80;0.80;;;19.70;70.50;;;;;;5084945;28;43371;-72
2023/05/17 02:48:41;;;;;;;0.90;0.90;;;19.80;70.30;;;;;;5079686;28;43743;-73
2023/05/17 02:51:09;;;;;;;1.10;1.10;;;19.80;70.10;;;;;;5079896;28;45033;-73
2023/05/17 02:53:37;;;;;;;0.90;0.90;;;19.80;69.80;;;;;;5078263;28;43509;-74
2023/05/17 02:56:10;;;;;;;0.90;0.90;;;19.80;70.20;;;;;;5077327;27;43494;-71
2023/05/17 02:58:39;;;;;;;0.93;0.93;;;19.80;70.20;;;;;;5071899;28;45745;-73
2023/05/17 03:01:08;;;;;;;0.90;0.90;;;19.80;70.10;;;;;;5074108;28;44693;-73
2023/05/17 03:03:36;;;;;;;0.83;0.83;;;19.80;70.10;;;;;;5071808;28;43971;-73
2023/05/17 03:06:07;;;;;;;1.00;1.00;;;19.80;70.20;;;;;;5074200;27;43491;-74
2023/05/17 03:08:35;;;;;;;0.90;0.90;;;19.70;70.40;;;;;;5083624;28;46276;-74
2023/05/17 03:11:04;;;;;;;0.90;0.90;;;19.70;70.50;;;;;;5076662;27;43425;-73
2023/05/17 03:13:32;;;;;;;0.97;0.97;;;19.70;70.40;;;;;;5084031;28;43409;-74
2023/05/17 03:16:01;;;;;;;0.77;0.77;;;19.70;70.30;;;;;;5080913;28;44047;-76
2023/05/17 03:18:29;;;;;;;1.00;1.00;;;19.60;70.30;;;;;;5080873;28;43879;-75
2023/05/17 03:20:58;;;;;;;0.87;0.87;;;19.60;71.10;;;;;;5075041;28;45067;-73
2023/05/17 03:23:27;;;;;;;1.10;1.10;;;19.60;70.70;;;;;;5081831;28;43410;-75
2023/05/17 03:26:02;;;;;;;1.00;1.00;;;19.60;70.60;;;;;;5077381;28;43607;-74
2023/05/17 03:28:36;;;;;;;0.90;0.90;;;19.80;70.40;;;;;;5080943;27;43874;-74
2023/05/17 03:31:05;;;;;;;1.03;1.03;;;19.90;70.00;;;;;;5080602;28;44668;-73
2023/05/17 03:33:34;;;;;;;0.90;0.90;;;20.00;69.70;;;;;;5081637;28;43451;-74
2023/05/17 03:36:03;;;;;;;1.00;1.00;;;20.00;69.50;;;;;;5080856;28;43781;-74
2023/05/17 03:38:33;;;;;;;1.00;1.00;;;20.00;69.50;;;;;;5078896;28;43828;-73
2023/05/17 03:41:01;;;;;;;0.93;0.93;;;19.90;69.50;;;;;;5080616;28;43374;-74
2023/05/17 03:43:30;;;;;;;1.00;1.00;;;19.80;69.60;;;;;;5080673;28;43457;-74
2023/05/17 03:45:59;;;;;;;1.00;1.00;;;19.80;70.10;;;;;;5077271;28;43363;-74
2023/05/17 03:48:29;;;;;;;1.07;1.07;;;19.80;70.20;;;;;;5069586;28;45928;-74
2023/05/17 03:50:57;;;;;;;1.07;1.07;;;19.70;70.10;;;;;;5075041;28;43549;-73
2023/05/17 03:53:25;;;;;;;0.97;0.97;;;19.70;70.10;;;;;;5076915;27;43356;-74
2023/05/17 03:55:54;;;;;;;1.50;1.40;;;19.70;70.20;;;;;;5077940;28;43575;-73
2023/05/17 03:58:25;;;;;;;1.73;1.63;;;19.60;71.00;;;;;;5077181;28;45998;-74
2023/05/17 04:00:53;;;;;;;2.00;1.80;;;19.60;70.40;;;;;;5077374;28;44767;-74
2023/05/17 04:03:21;;;;;;;1.60;1.50;;;19.60;70.30;;;;;;5069765;28;43522;-74
2023/05/17 04:05:49;;;;;;;1.63;1.53;;;19.60;70.30;;;;;;5083553;27;43461;-74
2023/05/17 04:08:17;;;;;;;4.70;1.70;;;19.60;70.30;;;;;;5066115;28;44021;-74
2023/05/17 04:10:45;;;;;;;2.37;2.17;;;19.60;70.40;;;;;;5079799;28;44806;-74
2023/05/17 04:13:15;;;;;;;3.00;2.60;;;19.60;70.60;;;;;;5082316;27;43400;-73
2023/05/17 04:15:43;;;;;;;6.13;2.93;;;19.60;70.60;;;;;;5080322;28;43658;-74
2023/05/17 04:18:11;;;;;;;4.13;2.70;;;19.70;70.30;;;;;;5066258;28;43614;-72
2023/05/17 04:20:39;;;;;;;3.80;2.57;;;19.80;69.80;;;;;;5069765;28;43828;-74
2023/05/17 04:23:07;;;;;;;3.80;2.80;;;20.00;69.70;;;;;;5078317;28;43493;-73
2023/05/17 04:25:36;;;;;;;4.03;2.83;;;20.00;69.40;;;;;;5075404;27;43603;-73
2023/05/17 04:28:04;;;;;;;3.57;2.73;;;20.00;69.30;;;;;;5082477;28;45809;-73
2023/05/17 04:30:35;;;;;;;4.40;2.70;;;19.90;69.30;;;;;;5075352;28;44829;-73
2023/05/17 04:33:03;;;;;;;3.77;3.27;;;19.80;69.40;;;;;;5083664;28;43405;-72
2023/05/17 04:35:31;;;;;;;5.13;2.97;;;19.80;69.60;;;;;;5081385;28;43901;-73
2023/05/17 04:37:59;;;;;;;4.37;3.20;;;19.70;70.10;;;;;;5082685;28;43906;-74
2023/05/17 04:40:27;;;;;;;5.47;3.60;;;19.70;69.90;;;;;;5065550;28;44759;-74
2023/05/17 04:42:57;;;;;;;5.37;3.63;;;19.70;69.80;;;;;;5079753;28;43449;-74
2023/05/17 04:45:26;;;;;;;6.87;4.03;;;19.70;69.80;;;;;;5084174;28;43529;-74
2023/05/17 04:47:56;;;;;;;4.90;3.90;;;19.60;69.90;;;;;;5078310;28;43987;-74
2023/05/17 04:50:24;;;;;;;5.53;3.60;;;19.60;70.40;;;;;;5080649;28;44833;-73
2023/05/17 04:52:52;;;;;;;4.63;3.60;;;19.70;70.40;;;;;;5081609;28;43414;-73
2023/05/17 04:55:20;;;;;;;7.20;3.97;;;19.80;70.10;;;;;;5086582;28;44123;-73
2023/05/17 04:57:48;;;;;;;6.07;3.70;;;19.80;69.90;;;;;;5079184;28;44032;-74
2023/05/17 05:00:17;;;;;;;4.30;3.63;;;19.80;69.70;;;;;;5078681;28;43417;-74
2023/05/17 05:02:50;;;;;;;5.03;3.67;;;19.80;70.10;;;;;;5084139;28;43470;-74
2023/05/17 05:05:20;;;;;;;4.87;3.60;;;19.70;70.00;;;;;;5072508;28;43336;-72
2023/05/17 05:07:51;;;;;;;6.83;3.90;;;19.70;69.80;;;;;;5083879;28;44788;-74
2023/05/17 05:10:21;;;;;;;3.70;3.37;;;19.70;69.90;;;;;;5080953;28;43946;-74
2023/05/17 05:12:49;;;;;;;5.03;3.80;;;19.70;70.00;;;;;;5075407;28;43473;-74
2023/05/17 05:15:18;;;;;;;4.40;3.80;;;19.70;70.10;;;;;;5086973;27;43514;-74
2023/05/17 05:17:53;;;;;;;4.43;4.00;;;19.60;70.40;;;;;;5086890;27;45448;-74
2023/05/17 05:20:22;;;;;;;4.37;3.97;;;19.70;70.40;;;;;;5087466;27;44537;-74
2023/05/17 05:22:53;;;;;;;3.43;3.13;;;19.70;70.10;;;;;;5079312;28;43465;-74
2023/05/17 05:25:21;;;;;;;6.33;3.70;;;19.80;69.90;;;;;;5085234;28;43816;-73
2023/05/17 05:27:49;;;;;;;4.87;3.80;;;19.80;69.80;;;;;;5077161;28;45495;-76
2023/05/17 05:30:20;;;;;;;3.63;3.33;;;19.70;70.10;;;;;;5080398;28;44922;-73
2023/05/17 05:32:51;;;;;;;3.70;3.40;;;19.80;70.10;;;;;;5079627;28;43398;-74
2023/05/17 05:35:27;;;;;;;4.77;3.30;;;19.70;69.80;;;;;;5085900;28;43458;-74
2023/05/17 05:37:57;;;;;;;3.10;2.90;;;19.70;69.90;;;;;;5081465;28;43663;-74
2023/05/17 05:40:25;;;;;;;3.20;3.00;;;19.70;70.00;;;;;;5083600;28;45048;-74
2023/05/17 05:42:53;;;;;;;5.10;3.83;;;19.60;70.30;;;;;;5082100;28;44050;-75
2023/05/17 05:45:22;;;;;;;3.17;2.90;;;19.60;70.20;;;;;;5083829;28;43649;-72
2023/05/17 05:47:52;;;;;;;3.33;3.13;;;19.60;70.10;;;;;;5078616;28;43931;-73
2023/05/17 05:50:22;;;;;;;3.50;3.30;;;19.60;70.10;;;;;;5077015;28;44942;-73
2023/05/17 05:52:53;;;;;;;3.30;3.00;;;19.60;70.20;;;;;;5082871;28;43382;-73
2023/05/17 05:55:40;;;;;;;3.67;3.30;;;19.60;70.50;;;;;;5073761;28;43503;-74
2023/05/17 05:58:09;;;;;;;4.07;3.47;;;19.60;70.50;;;;;;5076247;28;45981;-74
2023/05/17 06:00:38;;;;;;;3.67;3.37;;;19.70;70.30;;;;;;5078478;27;44447;-74
2023/05/17 06:03:06;;;;;;;3.50;3.30;;;19.70;70.00;;;;;;5085437;28;43383;-74
2023/05/17 06:05:36;;;;;;;3.50;3.30;;;19.80;69.80;;;;;;5083382;28;43428;-74
2023/05/17 06:08:04;;;;;;;3.23;3.00;;;19.80;69.80;;;;;;5078678;28;45811;-74
2023/05/17 06:10:32;;;;;;;3.20;3.00;;;19.70;70.10;;;;;;5074092;27;43819;-74
2023/05/17 06:13:00;;;;;;;2.90;2.70;;;19.70;70.00;;;;;;5086291;28;43372;-74
2023/05/17 06:15:28;;;;;;;2.97;2.73;;;19.70;69.80;;;;;;5082179;28;43431;-73
2023/05/17 06:17:56;;;;;;;3.20;3.00;;;19.70;69.90;;;;;;5076862;28;43793;-74
2023/05/17 06:20:24;;;;;;;3.80;3.33;;;19.70;70.00;;;;;;5087361;27;44656;-74
2023/05/17 06:22:53;;;;;;;3.30;3.10;;;19.60;70.10;;;;;;5075538;28;43526;-73
2023/05/17 06:25:21;;;;;;;3.17;2.97;;;19.60;70.40;;;;;;5078963;28;43470;-74
2023/05/17 06:27:49;;;;;;;2.97;2.77;;;19.70;70.30;;;;;;5088731;27;43611;-74
2023/05/17 06:30:17;;;;;;;3.40;3.20;;;19.80;70.80;;;;;;5082448;28;44542;-74
2023/05/17 06:32:45;;;;;;;3.40;3.03;;;19.80;69.90;;;;;;5084906;28;43456;-74
2023/05/17 06:35:13;;;;;;;3.17;2.87;;;19.80;69.80;;;;;;5085319;27;43368;-74
2023/05/17 06:37:41;;;;;;;3.73;3.17;;;19.70;70.00;;;;;;5073606;27;45423;-74
2023/05/17 06:40:12;;;;;;;2.73;2.53;;;19.70;70.00;;;;;;5083229;28;43515;-74
2023/05/17 06:42:44;;;;;;;3.23;3.03;;;19.70;70.00;;;;;;5072608;28;43451;-74
2023/05/17 06:45:12;;;;;;;3.10;2.90;;;19.60;69.90;;;;;;5083704;28;43499;-74
2023/05/17 06:47:40;;;;;;;3.63;3.40;;;19.60;70.00;;;;;;5079049;27;43597;-74
2023/05/17 06:50:09;;;;;;;3.10;2.90;;;19.60;70.20;;;;;;5081698;28;44407;-73
2023/05/17 06:52:37;;;;;;;3.27;3.07;;;19.60;70.40;;;;;;5077596;27;43366;-73
2023/05/17 06:55:06;;;;;;;3.63;3.33;;;19.60;70.30;;;;;;5081420;28;43503;-74
2023/05/17 06:57:36;;;;;;;2.90;2.80;;;19.60;70.20;;;;;;5081550;28;45774;-73
2023/05/17 07:00:09;;;;;;;3.33;3.13;;;19.50;70.20;;;;;;5084507;27;44687;-74
2023/05/17 07:02:37;;;;;;;3.20;3.00;;;19.50;70.30;;;;;;5083853;28;43910;-73
2023/05/17 07:05:06;;;;;;;3.40;3.20;;;19.50;70.50;;;;;;5080053;28;43825;-72
2023/05/17 07:07:34;;;;;;;2.70;2.60;;;19.50;70.40;;;;;;5077473;28;43604;-73
2023/05/17 07:10:03;;;;;;;2.97;2.87;;;19.50;70.30;;;;;;5079603;28;43884;-74
2023/05/17 07:12:31;;;;;;;2.80;2.70;;;19.50;71.10;;;;;;5085396;27;43378;-73
2023/05/17 07:15:00;;;;;;;3.10;2.90;;;19.50;70.40;;;;;;5072741;27;43418;-74
2023/05/17 07:17:29;;;;;;;3.10;2.90;;;19.50;70.70;;;;;;5079575;28;44988;-77
2023/05/17 07:19:57;;;;;;;2.90;2.70;;;19.50;70.60;;;;;;5075176;27;44080;-74
2023/05/17 07:22:25;;;;;;;2.93;2.73;;;19.60;70.20;;;;;;5073467;28;43422;-74
2023/05/17 07:24:53;;;;;;;3.10;3.00;;;19.80;69.90;;;;;;5081869;28;43560;-72
2023/05/17 07:27:21;;;;;;;2.67;2.50;;;19.90;69.40;;;;;;5079436;28;43523;-73
2023/05/17 07:29:49;;;;;;;3.03;2.90;;;19.90;69.20;;;;;;5081663;28;43421;-73
2023/05/17 07:32:18;;;;;;;2.87;2.73;;;19.90;69.10;;;;;;5082680;28;43866;-73
2023/05/17 07:34:46;;;;;;;2.80;2.70;;;19.90;69.20;;;;;;5077281;28;43366;-72
2023/05/17 07:37:14;;;;;;;2.50;2.40;;;19.80;69.30;;;;;;5082543;27;43916;-74
2023/05/17 07:39:42;;;;;;;2.80;2.70;;;19.70;69.50;;;;;;5078637;28;43375;-73
2023/05/17 07:42:10;;;;;;;2.60;2.50;;;19.60;69.90;;;;;;5069443;28;43376;-75
2023/05/17 07:44:38;;;;;;;2.57;2.47;;;19.70;69.90;;;;;;5076225;28;44009;-73
2023/05/17 07:47:06;;;;;;;2.70;2.60;;;19.60;69.90;;;;;;5085348;28;43772;-74
2023/05/17 07:49:35;;;;;;;2.87;2.77;;;19.60;70.00;;;;;;5077193;28;43478;-72
2023/05/17 07:52:06;;;;;;;3.20;3.00;;;19.50;70.00;;;;;;5078415;28;43952;-74
2023/05/17 07:54:34;;;;;;;3.00;2.80;;;19.50;70.40;;;;;;5080738;28;43455;-74
2023/05/17 07:57:02;;;;;;;2.90;2.70;;;19.50;70.20;;;;;;5077334;28;46028;-74
2023/05/17 07:59:30;;;;;;;2.70;2.60;;;19.50;70.10;;;;;;5076584;28;43953;-74
2023/05/17 08:01:58;;;;;;;3.07;2.90;;;19.50;70.90;;;;;;5078303;28;43413;-74
2023/05/17 08:04:26;;;;;;;2.60;2.50;;;19.50;70.30;;;;;;5073920;28;43892;-74
2023/05/17 08:06:55;;;;;;;2.70;2.60;;;19.50;70.50;;;;;;5081585;27;43962;-74
2023/05/17 08:09:23;;;;;;;2.53;2.43;;;19.50;70.60;;;;;;5084168;28;43489;-74
2023/05/17 08:11:51;;;;;;;2.53;2.43;;;19.60;70.50;;;;;;5077580;27;43487;-73
2023/05/17 08:14:23;;;;;;;2.77;2.67;;;19.70;70.00;;;;;;5084342;27;43397;-74
2023/05/17 08:16:51;;;;;;;2.90;2.80;;;19.80;69.70;;;;;;5084027;28;45599;-74
2023/05/17 08:19:19;;;;;;;2.83;2.73;;;19.90;69.50;;;;;;5079157;27;44406;-74
2023/05/17 08:21:53;;;;;;;2.80;2.70;;;19.80;69.30;;;;;;5080899;28;43652;-74
2023/05/17 08:24:22;;;;;;;2.77;2.67;;;19.80;69.50;;;;;;5083214;28;43375;-74
2023/05/17 08:26:53;;;;;;;2.80;2.70;;;19.70;69.70;;;;;;5076897;28;43813;-72
2023/05/17 08:29:23;;;;;;;2.67;2.57;;;19.60;69.80;;;;;;5079862;28;43389;-74
2023/05/17 08:31:51;;;;;;;2.30;2.20;;;19.60;70.20;;;;;;5078061;28;43427;-74
2023/05/17 08:34:19;;;;;;;2.60;2.50;;;19.60;70.00;;;;;;5083943;28;43460;-74
2023/05/17 08:36:50;;;;;;;2.40;2.30;;;19.60;70.10;;;;;;5067252;27;43598;-74
2023/05/17 08:39:19;;;;;;;2.60;2.50;;;19.50;70.10;;;;;;5077073;27;43524;-73
2023/05/17 08:41:48;;;;;;;2.30;2.30;;;19.50;70.30;;;;;;5081487;28;43479;-76
2023/05/17 08:44:16;;;;;;;2.40;2.30;;;19.40;70.40;;;;;;5079834;27;43584;-75
2023/05/17 08:46:44;;;;;;;2.70;2.60;;;19.50;70.40;;;;;;5084863;27;43851;-74
2023/05/17 08:49:14;;;;;;;2.73;2.60;;;19.50;70.40;;;;;;5079818;28;44792;-74
2023/05/17 08:51:42;;;;;;;2.70;2.60;;;19.50;70.40;;;;;;5082464;27;43445;-75
2023/05/17 08:54:10;;;;;;;2.60;2.50;;;19.40;70.40;;;;;;5077859;28;43541;-73
2023/05/17 08:56:38;;;;;;;2.83;2.73;;;19.40;70.60;;;;;;5082249;28;43945;-74
2023/05/17 08:59:09;;;;;;;2.80;2.70;;;19.50;70.80;;;;;;5066448;28;44660;-72
2023/05/17 09:01:38;;;;;;;2.57;2.47;;;19.50;70.30;;;;;;5082549;27;43465;-73
2023/05/17 09:04:06;;;;;;;2.80;2.70;;;19.60;70.00;;;;;;5078580;28;43873;-72
2023/05/17 09:06:34;;;;;;;2.80;2.70;;;19.70;69.80;;;;;;5073043;28;46189;-74
2023/05/17 09:09:06;;;;;;;2.47;2.40;;;19.70;69.80;;;;;;5072010;28;44612;-74
2023/05/17 09:11:34;;;;;;;2.77;2.60;;;19.60;70.00;;;;;;5081230;28;43354;-74
2023/05/17 09:14:03;;;;;;;2.43;2.33;;;19.60;70.10;;;;;;5077621;28;43535;-74
2023/05/17 09:16:33;;;;;;;2.50;2.40;;;19.60;70.00;;;;;;5076018;28;46000;-74
2023/05/17 09:19:02;;;;;;;2.70;2.60;;;19.50;69.90;;;;;;5080735;28;43451;-75
2023/05/17 09:21:31;;;;;;;2.63;2.53;;;19.50;70.10;;;;;;5084866;28;43384;-74
2023/05/17 09:24:00;;;;;;;2.77;2.67;;;19.50;70.30;;;;;;5085413;28;43938;-74
2023/05/17 09:26:39;;;;;;;2.60;2.50;;;19.50;70.40;;;;;;5073367;27;43681;-74
2023/05/17 09:29:10;;;;;;;2.80;2.60;;;19.50;70.30;;;;;;5084456;28;43359;-73
2023/05/17 09:31:40;;;;;;;2.60;2.50;;;19.40;70.30;;;;;;5075630;27;43434;-72
2023/05/17 09:34:08;;;;;;;2.77;2.67;;;19.40;70.40;;;;;;5060298;28;43834;-74
2023/05/17 09:36:36;;;;;;;2.50;2.40;;;19.40;70.40;;;;;;5082390;28;43623;-74
2023/05/17 09:39:09;;;;;;;2.93;2.73;;;19.40;70.70;;;;;;5085629;28;43470;-74
2023/05/17 09:41:41;;;;;;;2.40;2.30;;;19.50;70.50;;;;;;5069874;27;43421;-73
2023/05/17 09:44:09;;;;;;;2.30;2.30;;;19.60;70.10;;;;;;5064160;28;43373;-74
2023/05/17 09:46:39;;;;;;;2.50;2.40;;;19.60;69.80;;;;;;5082904;27;43875;-74
2023/05/17 09:49:08;;;;;;;2.47;2.37;;;19.60;69.60;;;;;;5077315;27;43424;-74
2023/05/17 09:51:37;;;;;;;2.40;2.30;;;19.60;69.70;;;;;;5085191;28;43967;-73
2023/05/17 09:54:06;;;;;;;2.47;2.37;;;19.60;70.00;;;;;;5081312;27;43803;-74
2023/05/17 09:56:35;;;;;;;2.07;2.07;;;19.60;69.80;;;;;;5080671;28;46032;-74
2023/05/17 09:59:03;;;;;;;2.30;2.30;;;19.60;69.80;;;;;;5089123;27;43718;-75
2023/05/17 10:01:31;;;;;;;2.60;2.50;;;19.60;69.90;;;;;;5084939;27;43382;-74
2023/05/17 10:04:01;;;;;;;2.10;2.10;;;19.50;70.00;;;;;;5078682;28;43365;-74
2023/05/17 10:06:30;;;;;;;2.30;2.20;;;19.50;70.30;;;;;;5062769;28;43952;-74
2023/05/17 10:09:13;;;;;;;2.10;2.10;;;19.50;70.20;;;;;;5076016;28;44652;-74
2023/05/17 10:11:43;;;;;;;2.10;2.10;;;19.50;70.20;;;;;;5067876;28;43680;-74
2023/05/17 10:14:12;;;;;;;2.17;2.17;;;19.50;70.30;;;;;;5072329;28;43501;-75
2023/05/17 10:16:40;;;;;;;2.40;2.30;;;19.50;70.40;;;;;;5088207;27;43597;-74
2023/05/17 10:19:10;;;;;;;2.63;2.53;;;19.40;70.60;;;;;;5085803;27;43457;-74
2023/05/17 10:21:38;;;;;;;2.13;2.13;;;19.50;70.60;;;;;;5078241;27;43451;-73
2023/05/17 10:24:06;;;;;;;2.13;2.13;;;19.60;70.30;;;;;;5079466;28;43311;-73
2023/05/17 10:26:34;;;;;;;2.30;2.30;;;19.60;70.00;;;;;;5080477;27;43820;-74
2023/05/17 10:29:03;;;;;;;2.20;2.20;;;19.60;69.80;;;;;;5078216;27;43447;-75
2023/05/17 10:31:33;;;;;;;2.40;2.30;;;19.60;69.90;;;;;;5084970;28;43509;-73
2023/05/17 10:34:05;;;;;;;2.10;2.10;;;19.60;70.10;;;;;;5084857;27;43367;-74
2023/05/17 10:36:37;;;;;;;2.40;2.30;;;19.60;70.00;;;;;;5079988;28;45964;-75
2023/05/17 10:39:07;;;;;;;2.10;2.10;;;19.60;70.00;;;;;;5072303;28;45042;-74
2023/05/17 10:41:35;;;;;;;1.87;1.87;;;19.50;70.00;;;;;;5084766;28;43422;-74
2023/05/17 10:44:04;;;;;;;2.20;2.20;;;19.50;70.10;;;;;;5079712;27;43496;-75
2023/05/17 10:46:32;;;;;;;2.30;2.20;;;19.50;70.40;;;;;;5078073;27;45680;-73
2023/05/17 10:49:00;;;;;;;2.10;2.10;;;19.50;70.30;;;;;;5084583;27;45984;-74
2023/05/17 10:51:37;;;;;;;2.37;2.27;;;19.40;70.20;;;;;;5073955;27;43536;-73
2023/05/17 10:54:09;;;;;;;2.00;2.00;;;19.50;70.30;;;;;;5076728;28;43462;-74
2023/05/17 10:56:40;;;;;;;2.33;2.23;;;19.40;70.40;;;;;;5081561;27;43603;-72
2023/05/17 10:59:18;;;;;;;2.30;2.30;;;19.40;70.50;;;;;;5067712;28;44767;-73
2023/05/17 11:01:54;;;;;;;2.00;2.00;;;19.40;70.50;;;;;;5075106;28;43473;-73
2023/05/17 11:04:24;;;;;;;2.23;2.13;;;19.50;70.30;;;;;;5072665;28;44069;-74
2023/05/17 11:06:56;;;;;;;2.43;2.33;;;19.60;69.90;;;;;;5079155;28;43874;-74
2023/05/17 11:09:24;;;;;;;2.13;2.13;;;19.70;69.70;;;;;;5079986;27;43339;-74
2023/05/17 11:12:05;;;;;;;2.10;2.10;;;19.70;69.70;;;;;;5078224;28;43998;-74
2023/05/17 11:14:49;;;;;;;2.23;2.20;;;19.60;69.90;;;;;;5068336;28;43454;-74
2023/05/17 11:17:18;;;;;;;2.20;2.20;;;19.60;69.90;;;;;;5077082;27;43840;-73
2023/05/17 11:19:54;;;;;;;2.20;2.10;;;19.60;69.80;;;;;;5072366;27;44414;-74
2023/05/17 11:22:24;;;;;;;2.60;2.50;;;19.60;69.80;;;;;;5072703;27;43410;-74
2023/05/17 11:24:53;;;;;;;2.33;2.27;;;19.50;69.90;;;;;;5079730;28;43431;-73
2023/05/17 11:27:26;;;;;;;2.20;2.10;;;19.50;70.20;;;;;;5084340;28;45707;-73
2023/05/17 11:29:54;;;;;;;2.03;2.03;;;19.40;70.10;;;;;;5081580;28;44727;-74
2023/05/17 11:32:27;;;;;;;2.10;2.10;;;19.50;70.10;;;;;;5079018;28;43967;-74
2023/05/17 11:34:55;;;;;;;2.10;2.10;;;19.50;70.20;;;;;;5078049;28;43409;-74
2023/05/17 11:37:30;;;;;;;2.70;2.60;;;19.40;70.20;;;;;;5069666;28;43609;-74
2023/05/17 11:40:01;;;;;;;2.20;2.20;;;19.40;70.40;;;;;;5074657;27;44672;-73
2023/05/17 11:42:29;;;;;;;2.23;2.20;;;19.40;70.40;;;;;;5065203;28;43384;-73
2023/05/17 11:44:58;;;;;;;2.10;2.10;;;19.40;70.30;;;;;;5074450;28;43389;-73
2023/05/17 11:47:26;;;;;;;2.30;2.30;;;19.40;70.20;;;;;;5069273;28;44065;-72
2023/05/17 11:49:55;;;;;;;2.33;2.27;;;19.40;71.00;;;;;;5070029;28;43497;-72
2023/05/17 11:52:27;;;;;;;2.87;2.77;;;19.40;70.40;;;;;;5078901;27;43358;-72
2023/05/17 11:54:56;;;;;;;2.40;2.30;;;19.30;70.50;;;;;;5078792;28;43440;-73
2023/05/17 11:57:29;;;;;;;2.67;2.57;;;19.40;70.40;;;;;;5078313;27;43857;-73
2023/05/17 12:00:01;;;;;;;2.20;2.20;;;19.50;70.10;;;;;;5079164;28;44997;-73
2023/05/17 12:02:39;;;;;;;2.60;2.50;;;19.70;69.80;;;;;;5073519;27;43404;-75
2023/05/17 12:05:08;;;;;;;2.40;2.40;;;19.80;69.50;;;;;;5072857;28;43483;-72
2023/05/17 12:07:38;;;;;;;2.07;2.07;;;19.70;69.20;;;;;;5080710;28;45446;-72
2023/05/17 12:10:07;;;;;;;2.10;2.10;;;19.70;69.40;;;;;;5077685;28;43892;-72
2023/05/17 12:12:35;;;;;;;2.20;2.20;;;19.60;69.50;;;;;;5083776;27;43369;-75
2023/05/17 12:15:03;;;;;;;2.50;2.40;;;19.50;69.70;;;;;;5078534;28;44034;-74
2023/05/17 12:17:40;;;;;;;2.33;2.33;;;19.50;70.10;;;;;;5075537;27;43578;-75
2023/05/17 12:20:09;;;;;;;2.40;2.40;;;19.50;70.10;;;;;;5082260;28;46065;-74
2023/05/17 12:22:54;;;;;;;2.73;2.63;;;19.50;70.10;;;;;;5069846;27;43481;-73
2023/05/17 12:25:24;;;;;;;2.60;2.50;;;19.40;70.10;;;;;;5073369;28;43468;-75
2023/05/17 12:27:53;;;;;;;2.40;2.33;;;19.40;70.20;;;;;;5074260;28;43604;-75
2023/05/17 12:30:22;;;;;;;2.60;2.50;;;19.40;70.40;;;;;;5082247;27;43501;-75
2023/05/17 12:32:53;;;;;;;2.60;2.57;;;19.40;70.50;;;;;;5070096;28;43517;-74
2023/05/17 12:35:21;;;;;;;2.70;2.70;;;19.50;70.10;;;;;;5081844;28;43429;-74
2023/05/17 12:37:51;;;;;;;2.40;2.40;;;19.60;69.90;;;;;;5076526;28;43962;-74
2023/05/17 12:40:21;;;;;;;2.50;2.50;;;19.50;69.80;;;;;;5081194;27;44436;-73
2023/05/17 12:42:49;;;;;;;2.40;2.40;;;19.50;69.80;;;;;;5076382;28;43516;-74
2023/05/17 12:45:17;;;;;;;2.50;2.50;;;19.50;70.10;;;;;;5080623;28;43495;-74
2023/05/17 12:47:45;;;;;;;3.00;2.90;;;19.50;69.90;;;;;;5077652;28;43763;-74
2023/05/17 12:50:13;;;;;;;2.63;2.53;;;19.50;70.00;;;;;;5079713;27;43439;-74
2023/05/17 12:52:41;;;;;;;2.80;2.70;;;19.40;70.00;;;;;;5075380;28;43407;-75
2023/05/17 12:55:12;;;;;;;2.60;2.60;;;19.40;70.10;;;;;;5081982;28;43458;-75
2023/05/17 12:57:48;;;;;;;2.90;2.80;;;19.40;70.50;;;;;;5069119;27;43688;-75
2023/05/17 13:00:17;;;;;;;2.43;2.43;;;19.40;70.30;;;;;;5083339;28;44352;-74